sensor_id;sensor_type;location;lat;lon;timestamp;P1;durP1;ratioP1;P2;durP2;ratioP2
12373;SDS011;6251;51.762;8.660;2022-12-18T05:02:05;6.50;;;3.10;;
12373;SDS011;6251;51.762;8.660;2022-12-18T05:12:06;5.47;;;3.50;;
12373;SDS011;6251;51.762;8.660;2022-12-18T05:22:06;5.43;;;3.40;;
12373;SDS011;6251;51.762;8.660;2022-12-18T05:32:07;4.30;;;3.37;;
12373;SDS011;6251;51.762;8.660;2022-12-18T05:42:08;6.73;;;3.70;;
12373;SDS011;6251;51.762;8.660;2022-12-18T05:52:08;4.53;;;3.33;;
12373;SDS011;6251;51.762;8.660;2022-12-18T06:12:41;7.93;;;4.30;;
12373;SDS011;6251;51.762;8.660;2022-12-18T06:22:41;5.43;;;3.47;;
12373;SDS011;6251;51.762;8.660;2022-12-18T06:32:42;5.90;;;3.62;;
12373;SDS011;6251;51.762;8.660;2022-12-18T06:42:42;5.57;;;3.83;;
12373;SDS011;6251;51.762;8.660;2022-12-18T06:52:43;6.30;;;3.73;;
12373;SDS011;6251;51.762;8.660;2022-12-18T07:02:44;5.53;;;3.73;;
12373;SDS011;6251;51.762;8.660;2022-12-18T07:12:44;6.20;;;3.50;;
12373;SDS011;6251;51.762;8.660;2022-12-18T07:22:45;6.45;;;4.47;;
12373;SDS011;6251;51.762;8.660;2022-12-18T07:32:45;10.97;;;4.43;;
12373;SDS011;6251;51.762;8.660;2022-12-18T07:42:46;11.27;;;6.27;;
12373;SDS011;6251;51.762;8.660;2022-12-18T07:52:46;9.27;;;4.97;;
12373;SDS011;6251;51.762;8.660;2022-12-18T08:02:47;7.57;;;4.37;;
12373;SDS011;6251;51.762;8.660;2022-12-18T08:12:51;14.00;;;6.00;;
12373;SDS011;6251;51.762;8.660;2022-12-18T08:22:51;12.47;;;6.27;;
12373;SDS011;6251;51.762;8.660;2022-12-18T08:32:52;12.80;;;6.30;;
12373;SDS011;6251;51.762;8.660;2022-12-18T08:42:53;11.67;;;6.70;;
12373;SDS011;6251;51.762;8.660;2022-12-18T08:53:13;13.87;;;6.13;;
12373;SDS011;6251;51.762;8.660;2022-12-18T09:03:14;8.80;;;5.37;;
12373;SDS011;6251;51.762;8.660;2022-12-18T09:13:16;11.07;;;6.47;;
12373;SDS011;6251;51.762;8.660;2022-12-18T09:23:17;8.60;;;6.03;;
12373;SDS011;6251;51.762;8.660;2022-12-18T09:33:18;10.43;;;6.12;;
12373;SDS011;6251;51.762;8.660;2022-12-18T09:43:23;10.75;;;5.85;;
12373;SDS011;6251;51.762;8.660;2022-12-18T09:53:33;8.43;;;5.63;;
12373;SDS011;6251;51.762;8.660;2022-12-18T10:03:37;10.53;;;6.50;;
12373;SDS011;6251;51.762;8.660;2022-12-18T10:13:40;11.63;;;6.15;;
12373;SDS011;6251;51.762;8.660;2022-12-18T10:33:53;8.17;;;5.43;;
12373;SDS011;6251;51.762;8.660;2022-12-18T10:44:10;7.10;;;4.83;;
12373;SDS011;6251;51.762;8.660;2022-12-18T10:54:20;10.43;;;5.30;;
12373;SDS011;6251;51.762;8.660;2022-12-18T11:14:31;8.10;;;4.67;;
12373;SDS011;6251;51.762;8.660;2022-12-18T11:24:34;6.07;;;4.97;;
12373;SDS011;6251;51.762;8.660;2022-12-18T11:34:36;13.50;;;6.43;;
12373;SDS011;6251;51.762;8.660;2022-12-18T11:55:04;10.13;;;6.37;;
12373;SDS011;6251;51.762;8.660;2022-12-18T12:15:43;6.77;;;4.77;;
12373;SDS011;6251;51.762;8.660;2022-12-18T12:26:04;7.07;;;4.47;;
12373;SDS011;6251;51.762;8.660;2022-12-18T12:46:42;6.13;;;4.90;;
12373;SDS011;6251;51.762;8.660;2022-12-18T12:57:20;6.73;;;4.87;;
12373;SDS011;6251;51.762;8.660;2022-12-18T13:07:17;6.10;;;4.50;;
12373;SDS011;6251;51.762;8.660;2022-12-18T13:17:29;5.77;;;4.00;;
12373;SDS011;6251;51.762;8.660;2022-12-18T13:37:44;4.80;;;3.63;;
12373;SDS011;6251;51.762;8.660;2022-12-18T13:47:52;5.50;;;3.90;;
12373;SDS011;6251;51.762;8.660;2022-12-18T13:58:03;11.57;;;6.30;;
12373;SDS011;6251;51.762;8.660;2022-12-18T14:08:05;5.60;;;4.43;;
12373;SDS011;6251;51.762;8.660;2022-12-18T14:18:20;11.83;;;6.50;;
12373;SDS011;6251;51.762;8.660;2022-12-18T14:28:21;12.33;;;6.47;;
12373;SDS011;6251;51.762;8.660;2022-12-18T14:48:30;10.30;;;5.80;;
12373;SDS011;6251;51.762;8.660;2022-12-18T14:58:50;7.27;;;4.83;;
12373;SDS011;6251;51.762;8.660;2022-12-18T15:08:54;13.50;;;7.50;;
12373;SDS011;6251;51.762;8.660;2022-12-18T15:18:54;9.33;;;5.10;;
12373;SDS011;6251;51.762;8.660;2022-12-18T15:28:55;6.60;;;4.67;;
12373;SDS011;6251;51.762;8.660;2022-12-18T15:38:59;7.53;;;4.80;;
12373;SDS011;6251;51.762;8.660;2022-12-18T15:49:02;10.07;;;6.63;;
12373;SDS011;6251;51.762;8.660;2022-12-18T15:59:04;11.37;;;8.03;;
12373;SDS011;6251;51.762;8.660;2022-12-18T16:09:09;9.67;;;5.97;;
12373;SDS011;6251;51.762;8.660;2022-12-18T16:19:10;15.00;;;7.53;;
12373;SDS011;6251;51.762;8.660;2022-12-18T16:29:24;19.10;;;10.13;;
12373;SDS011;6251;51.762;8.660;2022-12-18T16:39:27;13.03;;;7.60;;
12373;SDS011;6251;51.762;8.660;2022-12-18T16:49:28;13.90;;;8.63;;
12373;SDS011;6251;51.762;8.660;2022-12-18T16:59:29;15.13;;;8.77;;
12373;SDS011;6251;51.762;8.660;2022-12-18T17:09:30;14.20;;;8.37;;
12373;SDS011;6251;51.762;8.660;2022-12-18T17:19:30;16.33;;;8.80;;
12373;SDS011;6251;51.762;8.660;2022-12-18T17:29:31;18.73;;;9.43;;
12373;SDS011;6251;51.762;8.660;2022-12-18T17:39:32;18.70;;;10.03;;
12373;SDS011;6251;51.762;8.660;2022-12-18T17:49:32;23.37;;;10.50;;
12373;SDS011;6251;51.762;8.660;2022-12-18T17:59:33;21.50;;;10.70;;
12373;SDS011;6251;51.762;8.660;2022-12-18T18:20:23;18.40;;;10.97;;
12373;SDS011;6251;51.762;8.660;2022-12-18T18:30:23;21.93;;;12.00;;
12373;SDS011;6251;51.762;8.660;2022-12-18T18:40:24;20.37;;;10.80;;
12373;SDS011;6251;51.762;8.660;2022-12-18T18:50:25;20.97;;;11.47;;
12373;SDS011;6251;51.762;8.660;2022-12-18T19:00:25;25.43;;;12.93;;
12373;SDS011;6251;51.762;8.660;2022-12-18T19:10:26;25.77;;;12.20;;
12373;SDS011;6251;51.762;8.660;2022-12-18T19:20:26;26.30;;;11.97;;
12373;SDS011;6251;51.762;8.660;2022-12-18T19:30:27;24.43;;;11.90;;
12373;SDS011;6251;51.762;8.660;2022-12-18T19:40:28;22.37;;;11.73;;
12373;SDS011;6251;51.762;8.660;2022-12-18T19:50:28;26.80;;;12.33;;
12373;SDS011;6251;51.762;8.660;2022-12-18T20:00:29;26.57;;;12.37;;
12373;SDS011;6251;51.762;8.660;2022-12-18T20:10:30;27.97;;;12.53;;
12373;SDS011;6251;51.762;8.660;2022-12-18T20:20:31;22.97;;;12.30;;
12373;SDS011;6251;51.762;8.660;2022-12-18T20:30:31;26.03;;;11.83;;
12373;SDS011;6251;51.762;8.660;2022-12-18T20:40:32;25.75;;;12.68;;
12373;SDS011;6251;51.762;8.660;2022-12-18T20:50:38;28.53;;;12.57;;
12373;SDS011;6251;51.762;8.660;2022-12-18T21:00:38;25.53;;;11.93;;
12373;SDS011;6251;51.762;8.660;2022-12-18T21:10:39;23.33;;;12.30;;
12373;SDS011;6251;51.762;8.660;2022-12-18T21:20:41;28.03;;;13.23;;
12373;SDS011;6251;51.762;8.660;2022-12-18T21:30:41;24.23;;;12.60;;
12373;SDS011;6251;51.762;8.660;2022-12-18T21:40:42;27.67;;;13.57;;
12373;SDS011;6251;51.762;8.660;2022-12-18T21:50:43;25.30;;;12.67;;
12373;SDS011;6251;51.762;8.660;2022-12-18T22:00:44;28.70;;;13.33;;
12373;SDS011;6251;51.762;8.660;2022-12-18T22:10:44;27.57;;;13.77;;
